sensor_id;sensor_type;location;lat;lon;timestamp;pressure;altitude;pressure_sealevel;temperature
74539;BMP180;66042;51.090;-115.340;2023-02-28T00:01:33;84948.80;;;-2.02
74539;BMP180;66042;51.090;-115.340;2023-02-28T00:04:00;84951.20;;;-2.20
74539;BMP180;66042;51.090;-115.340;2023-02-28T00:06:28;84948.60;;;-2.28
74539;BMP180;66042;51.090;-115.340;2023-02-28T00:08:55;84952.00;;;-2.30
74539;BMP180;66042;51.090;-115.340;2023-02-28T00:11:22;84946.20;;;-2.40
74539;BMP180;66042;51.090;-115.340;2023-02-28T00:13:49;84943.40;;;-2.50
74539;BMP180;66042;51.090;-115.340;2023-02-28T00:16:20;84939.40;;;-2.60
74539;BMP180;66042;51.090;-115.340;2023-02-28T00:18:49;84937.60;;;-2.60
74539;BMP180;66042;51.090;-115.340;2023-02-28T00:21:18;84940.00;;;-2.70
74539;BMP180;66042;51.090;-115.340;2023-02-28T00:23:45;84936.00;;;-2.80
74539;BMP180;66042;51.090;-115.340;2023-02-28T00:26:12;84937.60;;;-2.90
74539;BMP180;66042;51.090;-115.340;2023-02-28T00:28:39;84937.20;;;-3.00
74539;BMP180;66042;51.090;-115.340;2023-02-28T00:31:06;84936.80;;;-3.10
74539;BMP180;66042;51.090;-115.340;2023-02-28T00:33:33;84934.40;;;-3.20
74539;BMP180;66042;51.090;-115.340;2023-02-28T00:36:09;84935.80;;;-3.20
74539;BMP180;66042;51.090;-115.340;2023-02-28T00:38:37;84934.00;;;-3.24
74539;BMP180;66042;51.090;-115.340;2023-02-28T00:41:05;84933.00;;;-3.30
74539;BMP180;66042;51.090;-115.340;2023-02-28T00:43:37;84931.20;;;-3.40
74539;BMP180;66042;51.090;-115.340;2023-02-28T00:46:05;84933.00;;;-3.42
74539;BMP180;66042;51.090;-115.340;2023-02-28T00:48:32;84928.20;;;-3.50
74539;BMP180;66042;51.090;-115.340;2023-02-28T00:51:00;84935.00;;;-3.60
74539;BMP180;66042;51.090;-115.340;2023-02-28T00:53:27;84934.40;;;-3.70
74539;BMP180;66042;51.090;-115.340;2023-02-28T00:55:54;84936.40;;;-3.80
74539;BMP180;66042;51.090;-115.340;2023-02-28T00:58:21;84935.00;;;-3.84
74539;BMP180;66042;51.090;-115.340;2023-02-28T01:00:48;84934.60;;;-3.90
74539;BMP180;66042;51.090;-115.340;2023-02-28T01:03:18;84937.80;;;-4.00
74539;BMP180;66042;51.090;-115.340;2023-02-28T01:05:46;84935.00;;;-4.10
74539;BMP180;66042;51.090;-115.340;2023-02-28T01:08:14;84935.80;;;-4.20
74539;BMP180;66042;51.090;-115.340;2023-02-28T01:10:42;84934.20;;;-4.20
74539;BMP180;66042;51.090;-115.340;2023-02-28T01:13:10;84940.00;;;-4.40
74539;BMP180;66042;51.090;-115.340;2023-02-28T01:15:39;84942.00;;;-4.50
74539;BMP180;66042;51.090;-115.340;2023-02-28T01:18:08;84946.60;;;-4.50
74539;BMP180;66042;51.090;-115.340;2023-02-28T01:20:37;84946.20;;;-4.62
74539;BMP180;66042;51.090;-115.340;2023-02-28T01:23:05;84948.40;;;-4.80
74539;BMP180;66042;51.090;-115.340;2023-02-28T01:25:36;84950.00;;;-4.90
74539;BMP180;66042;51.090;-115.340;2023-02-28T01:28:03;84946.20;;;-5.00
74539;BMP180;66042;51.090;-115.340;2023-02-28T01:30:31;84947.20;;;-5.10
74539;BMP180;66042;51.090;-115.340;2023-02-28T01:32:59;84952.80;;;-5.20
74539;BMP180;66042;51.090;-115.340;2023-02-28T01:35:26;84951.40;;;-5.26
74539;BMP180;66042;51.090;-115.340;2023-02-28T01:37:53;84948.20;;;-5.46
74539;BMP180;66042;51.090;-115.340;2023-02-28T01:40:20;84942.20;;;-5.60
74539;BMP180;66042;51.090;-115.340;2023-02-28T01:42:48;84937.80;;;-5.68
74539;BMP180;66042;51.090;-115.340;2023-02-28T01:45:31;84931.40;;;-5.80
74539;BMP180;66042;51.090;-115.340;2023-02-28T01:48:08;84932.40;;;-5.90
74539;BMP180;66042;51.090;-115.340;2023-02-28T01:50:42;84930.60;;;-6.10
74539;BMP180;66042;51.090;-115.340;2023-02-28T01:53:16;84933.20;;;-6.20
74539;BMP180;66042;51.090;-115.340;2023-02-28T01:55:48;84935.20;;;-6.30
74539;BMP180;66042;51.090;-115.340;2023-02-28T01:58:17;84931.40;;;-6.36
74539;BMP180;66042;51.090;-115.340;2023-02-28T02:00:44;84922.60;;;-6.50
74539;BMP180;66042;51.090;-115.340;2023-02-28T02:03:15;84922.20;;;-6.50
74539;BMP180;66042;51.090;-115.340;2023-02-28T02:05:45;84930.00;;;-6.50
74539;BMP180;66042;51.090;-115.340;2023-02-28T02:08:34;84926.20;;;-6.40
74539;BMP180;66042;51.090;-115.340;2023-02-28T02:11:03;84923.80;;;-6.42
74539;BMP180;66042;51.090;-115.340;2023-02-28T02:16:59;84923.20;;;-6.70
74539;BMP180;66042;51.090;-115.340;2023-02-28T02:32:16;84919.20;;;-7.00
74539;BMP180;66042;51.090;-115.340;2023-02-28T02:35:57;84912.60;;;-6.90
74539;BMP180;66042;51.090;-115.340;2023-02-28T02:38:17;84906.20;;;-6.90
74539;BMP180;66042;51.090;-115.340;2023-02-28T02:44:01;84896.60;;;-6.90
74539;BMP180;66042;51.090;-115.340;2023-02-28T02:46:41;84898.20;;;-6.90
74539;BMP180;66042;51.090;-115.340;2023-02-28T02:49:28;84897.20;;;-7.00
74539;BMP180;66042;51.090;-115.340;2023-02-28T02:52:11;84892.60;;;-7.24
74539;BMP180;66042;51.090;-115.340;2023-02-28T02:54:46;84890.60;;;-7.30
74539;BMP180;66042;51.090;-115.340;2023-02-28T02:57:34;84888.00;;;-7.30
74539;BMP180;66042;51.090;-115.340;2023-02-28T03:00:06;84888.60;;;-7.50
74539;BMP180;66042;51.090;-115.340;2023-02-28T03:02:38;84885.40;;;-7.90
74539;BMP180;66042;51.090;-115.340;2023-02-28T03:05:24;84888.60;;;-8.10
74539;BMP180;66042;51.090;-115.340;2023-02-28T03:07:52;84884.40;;;-8.02
74539;BMP180;66042;51.090;-115.340;2023-02-28T03:10:34;84881.00;;;-8.10
74539;BMP180;66042;51.090;-115.340;2023-02-28T03:24:49;84871.60;;;-8.10
74539;BMP180;66042;51.090;-115.340;2023-02-28T03:31:06;84860.00;;;-8.24
74539;BMP180;66042;51.090;-115.340;2023-02-28T03:33:50;84855.60;;;-8.20
74539;BMP180;66042;51.090;-115.340;2023-02-28T03:36:33;84858.80;;;-8.18
74539;BMP180;66042;51.090;-115.340;2023-02-28T03:39:08;84855.20;;;-8.30
74539;BMP180;66042;51.090;-115.340;2023-02-28T03:41:50;84848.00;;;-8.60
74539;BMP180;66042;51.090;-115.340;2023-02-28T03:44:30;84843.00;;;-8.60
74539;BMP180;66042;51.090;-115.340;2023-02-28T03:47:32;84835.60;;;-8.70
74539;BMP180;66042;51.090;-115.340;2023-02-28T03:50:20;84838.80;;;-9.06
74539;BMP180;66042;51.090;-115.340;2023-02-28T03:56:24;84843.20;;;-8.90
74539;BMP180;66042;51.090;-115.340;2023-02-28T04:01:31;84833.20;;;-9.00
74539;BMP180;66042;51.090;-115.340;2023-02-28T04:04:00;84832.40;;;-9.02
74539;BMP180;66042;51.090;-115.340;2023-02-28T04:06:32;84836.00;;;-9.20
74539;BMP180;66042;51.090;-115.340;2023-02-28T04:09:01;84836.00;;;-9.30
74539;BMP180;66042;51.090;-115.340;2023-02-28T04:14:06;84844.00;;;-9.20
74539;BMP180;66042;51.090;-115.340;2023-02-28T04:16:36;84839.40;;;-9.20
74539;BMP180;66042;51.090;-115.340;2023-02-28T04:19:06;84843.00;;;-9.22
74539;BMP180;66042;51.090;-115.340;2023-02-28T04:21:37;84835.20;;;-9.22
74539;BMP180;66042;51.090;-115.340;2023-02-28T04:24:10;84829.80;;;-9.50
74539;BMP180;66042;51.090;-115.340;2023-02-28T04:26:44;84829.40;;;-9.60
74539;BMP180;66042;51.090;-115.340;2023-02-28T04:29:14;84833.00;;;-9.70
74539;BMP180;66042;51.090;-115.340;2023-02-28T04:31:44;84833.80;;;-9.60
74539;BMP180;66042;51.090;-115.340;2023-02-28T04:34:11;84832.80;;;-9.50
74539;BMP180;66042;51.090;-115.340;2023-02-28T04:36:39;84829.00;;;-9.74
74539;BMP180;66042;51.090;-115.340;2023-02-28T04:39:06;84828.80;;;-9.70
74539;BMP180;66042;51.090;-115.340;2023-02-28T04:41:33;84831.80;;;-9.74
74539;BMP180;66042;51.090;-115.340;2023-02-28T04:44:00;84835.00;;;-9.80
74539;BMP180;66042;51.090;-115.340;2023-02-28T04:46:27;84832.60;;;-9.86
74539;BMP180;66042;51.090;-115.340;2023-02-28T04:48:56;84831.40;;;-9.90
74539;BMP180;66042;51.090;-115.340;2023-02-28T04:51:23;84830.60;;;-9.90
74539;BMP180;66042;51.090;-115.340;2023-02-28T04:53:50;84826.20;;;-10.00
74539;BMP180;66042;51.090;-115.340;2023-02-28T04:56:18;84826.00;;;-9.90
74539;BMP180;66042;51.090;-115.340;2023-02-28T04:58:45;84830.40;;;-10.10
74539;BMP180;66042;51.090;-115.340;2023-02-28T05:01:22;84824.20;;;-10.30
74539;BMP180;66042;51.090;-115.340;2023-02-28T05:03:51;84829.60;;;-10.50
74539;BMP180;66042;51.090;-115.340;2023-02-28T05:06:19;84827.40;;;-10.60
74539;BMP180;66042;51.090;-115.340;2023-02-28T05:08:47;84828.60;;;-10.40
74539;BMP180;66042;51.090;-115.340;2023-02-28T05:11:19;84829.80;;;-10.30
74539;BMP180;66042;51.090;-115.340;2023-02-28T05:13:47;84830.40;;;-10.20
74539;BMP180;66042;51.090;-115.340;2023-02-28T05:16:15;84826.80;;;-10.20
74539;BMP180;66042;51.090;-115.340;2023-02-28T05:18:43;84825.00;;;-10.20
74539;BMP180;66042;51.090;-115.340;2023-02-28T05:21:29;84820.20;;;-10.20
74539;BMP180;66042;51.090;-115.340;2023-02-28T05:24:00;84822.20;;;-10.20
74539;BMP180;66042;51.090;-115.340;2023-02-28T05:26:28;84822.00;;;-10.20
74539;BMP180;66042;51.090;-115.340;2023-02-28T05:28:56;84820.60;;;-10.40
74539;BMP180;66042;51.090;-115.340;2023-02-28T05:31:24;84824.20;;;-10.40
74539;BMP180;66042;51.090;-115.340;2023-02-28T05:33:51;84823.80;;;-10.26
74539;BMP180;66042;51.090;-115.340;2023-02-28T05:36:21;84829.20;;;-10.10
74539;BMP180;66042;51.090;-115.340;2023-02-28T05:38:49;84832.80;;;-10.00
74539;BMP180;66042;51.090;-115.340;2023-02-28T05:41:19;84828.40;;;-10.10
74539;BMP180;66042;51.090;-115.340;2023-02-28T05:43:47;84828.60;;;-10.30
74539;BMP180;66042;51.090;-115.340;2023-02-28T05:46:15;84830.40;;;-10.30
74539;BMP180;66042;51.090;-115.340;2023-02-28T05:48:45;84826.40;;;-10.14
74539;BMP180;66042;51.090;-115.340;2023-02-28T05:51:12;84821.80;;;-10.04
74539;BMP180;66042;51.090;-115.340;2023-02-28T05:53:39;84821.20;;;-10.10
74539;BMP180;66042;51.090;-115.340;2023-02-28T05:56:07;84822.00;;;-10.10
74539;BMP180;66042;51.090;-115.340;2023-02-28T05:58:34;84831.20;;;-10.02
74539;BMP180;66042;51.090;-115.340;2023-02-28T06:03:51;84825.40;;;-10.10
74539;BMP180;66042;51.090;-115.340;2023-02-28T06:06:18;84823.60;;;-10.10
74539;BMP180;66042;51.090;-115.340;2023-02-28T06:08:45;84821.20;;;-10.10
74539;BMP180;66042;51.090;-115.340;2023-02-28T06:11:12;84822.20;;;-10.02
74539;BMP180;66042;51.090;-115.340;2023-02-28T06:13:40;84819.20;;;-10.20
74539;BMP180;66042;51.090;-115.340;2023-02-28T06:16:09;84821.20;;;-10.38
74539;BMP180;66042;51.090;-115.340;2023-02-28T06:18:37;84822.00;;;-10.30
74539;BMP180;66042;51.090;-115.340;2023-02-28T06:21:05;84816.40;;;-10.22
74539;BMP180;66042;51.090;-115.340;2023-02-28T06:23:32;84813.20;;;-10.20
74539;BMP180;66042;51.090;-115.340;2023-02-28T06:25:59;84811.40;;;-10.10
74539;BMP180;66042;51.090;-115.340;2023-02-28T06:28:26;84813.40;;;-10.10
74539;BMP180;66042;51.090;-115.340;2023-02-28T06:30:53;84810.40;;;-10.10
74539;BMP180;66042;51.090;-115.340;2023-02-28T06:33:20;84808.60;;;-10.20
74539;BMP180;66042;51.090;-115.340;2023-02-28T06:35:51;84807.20;;;-10.20
74539;BMP180;66042;51.090;-115.340;2023-02-28T06:38:18;84805.80;;;-10.40
74539;BMP180;66042;51.090;-115.340;2023-02-28T06:40:55;84805.00;;;-10.60
74539;BMP180;66042;51.090;-115.340;2023-02-28T06:43:24;84808.20;;;-10.70
74539;BMP180;66042;51.090;-115.340;2023-02-28T06:45:54;84806.00;;;-10.60
74539;BMP180;66042;51.090;-115.340;2023-02-28T06:48:22;84807.40;;;-10.50
74539;BMP180;66042;51.090;-115.340;2023-02-28T06:50:49;84808.00;;;-10.40
74539;BMP180;66042;51.090;-115.340;2023-02-28T06:53:16;84811.20;;;-10.30
74539;BMP180;66042;51.090;-115.340;2023-02-28T06:55:43;84811.20;;;-10.30
74539;BMP180;66042;51.090;-115.340;2023-02-28T06:58:10;84812.00;;;-10.30
74539;BMP180;66042;51.090;-115.340;2023-02-28T07:00:49;84805.80;;;-10.34
74539;BMP180;66042;51.090;-115.340;2023-02-28T07:03:17;84807.20;;;-10.40
74539;BMP180;66042;51.090;-115.340;2023-02-28T07:05:45;84807.80;;;-10.40
74539;BMP180;66042;51.090;-115.340;2023-02-28T07:08:12;84804.40;;;-10.40
74539;BMP180;66042;51.090;-115.340;2023-02-28T07:10:39;84801.00;;;-10.40
74539;BMP180;66042;51.090;-115.340;2023-02-28T07:13:08;84802.20;;;-10.40
74539;BMP180;66042;51.090;-115.340;2023-02-28T07:15:37;84800.40;;;-10.40
74539;BMP180;66042;51.090;-115.340;2023-02-28T07:18:05;84800.20;;;-10.44
74539;BMP180;66042;51.090;-115.340;2023-02-28T07:20:32;84795.20;;;-10.60
74539;BMP180;66042;51.090;-115.340;2023-02-28T07:23:00;84795.00;;;-10.50
74539;BMP180;66042;51.090;-115.340;2023-02-28T07:25:29;84795.20;;;-10.44
74539;BMP180;66042;51.090;-115.340;2023-02-28T07:27:56;84793.00;;;-10.40
74539;BMP180;66042;51.090;-115.340;2023-02-28T07:30:26;84791.80;;;-10.40
74539;BMP180;66042;51.090;-115.340;2023-02-28T07:32:53;84792.40;;;-10.38
74539;BMP180;66042;51.090;-115.340;2023-02-28T07:35:22;84795.00;;;-10.40
74539;BMP180;66042;51.090;-115.340;2023-02-28T07:37:49;84791.20;;;-10.40
74539;BMP180;66042;51.090;-115.340;2023-02-28T07:40:17;84789.60;;;-10.40
74539;BMP180;66042;51.090;-115.340;2023-02-28T07:42:44;84784.80;;;-10.42
74539;BMP180;66042;51.090;-115.340;2023-02-28T07:45:11;84784.80;;;-10.50
74539;BMP180;66042;51.090;-115.340;2023-02-28T07:47:39;84789.20;;;-10.50
74539;BMP180;66042;51.090;-115.340;2023-02-28T07:50:09;84783.20;;;-10.52
74539;BMP180;66042;51.090;-115.340;2023-02-28T07:52:38;84780.00;;;-10.60
74539;BMP180;66042;51.090;-115.340;2023-02-28T07:55:07;84779.80;;;-10.60
74539;BMP180;66042;51.090;-115.340;2023-02-28T07:57:35;84775.80;;;-10.60
74539;BMP180;66042;51.090;-115.340;2023-02-28T08:00:08;84776.60;;;-10.70
74539;BMP180;66042;51.090;-115.340;2023-02-28T08:02:37;84775.40;;;-10.80
74539;BMP180;66042;51.090;-115.340;2023-02-28T08:05:05;84775.00;;;-10.82
74539;BMP180;66042;51.090;-115.340;2023-02-28T08:07:32;84771.60;;;-10.90
74539;BMP180;66042;51.090;-115.340;2023-02-28T08:09:59;84776.40;;;-10.88
74539;BMP180;66042;51.090;-115.340;2023-02-28T08:12:26;84775.80;;;-10.72
74539;BMP180;66042;51.090;-115.340;2023-02-28T08:14:53;84777.20;;;-10.70
74539;BMP180;66042;51.090;-115.340;2023-02-28T08:17:20;84779.00;;;-10.70
74539;BMP180;66042;51.090;-115.340;2023-02-28T08:19:48;84772.20;;;-10.80
74539;BMP180;66042;51.090;-115.340;2023-02-28T08:22:15;84774.00;;;-10.90
74539;BMP180;66042;51.090;-115.340;2023-02-28T08:24:42;84769.80;;;-10.80
74539;BMP180;66042;51.090;-115.340;2023-02-28T08:27:10;84769.60;;;-10.88
74539;BMP180;66042;51.090;-115.340;2023-02-28T08:29:39;84766.40;;;-10.80
74539;BMP180;66042;51.090;-115.340;2023-02-28T08:32:07;84763.40;;;-10.70
74539;BMP180;66042;51.090;-115.340;2023-02-28T08:34:34;84766.00;;;-10.60
74539;BMP180;66042;51.090;-115.340;2023-02-28T08:37:01;84769.00;;;-10.60
74539;BMP180;66042;51.090;-115.340;2023-02-28T08:39:28;84768.60;;;-10.70
74539;BMP180;66042;51.090;-115.340;2023-02-28T08:41:54;84765.20;;;-10.70
74539;BMP180;66042;51.090;-115.340;2023-02-28T08:44:21;84763.40;;;-10.70
74539;BMP180;66042;51.090;-115.340;2023-02-28T08:46:48;84758.60;;;-10.70
74539;BMP180;66042;51.090;-115.340;2023-02-28T08:49:15;84758.60;;;-10.60
74539;BMP180;66042;51.090;-115.340;2023-02-28T08:51:42;84758.80;;;-10.74
74539;BMP180;66042;51.090;-115.340;2023-02-28T08:54:09;84758.00;;;-11.00
74539;BMP180;66042;51.090;-115.340;2023-02-28T08:56:39;84756.80;;;-11.10
74539;BMP180;66042;51.090;-115.340;2023-02-28T08:59:05;84755.00;;;-11.00
74539;BMP180;66042;51.090;-115.340;2023-02-28T09:01:33;84754.00;;;-10.90
74539;BMP180;66042;51.090;-115.340;2023-02-28T09:04:00;84754.40;;;-10.90
74539;BMP180;66042;51.090;-115.340;2023-02-28T09:06:29;84752.00;;;-10.80
74539;BMP180;66042;51.090;-115.340;2023-02-28T09:08:59;84749.20;;;-10.90
74539;BMP180;66042;51.090;-115.340;2023-02-28T09:11:28;84749.80;;;-10.80
74539;BMP180;66042;51.090;-115.340;2023-02-28T09:13:55;84751.80;;;-10.70
74539;BMP180;66042;51.090;-115.340;2023-02-28T09:16:22;84748.00;;;-10.70
74539;BMP180;66042;51.090;-115.340;2023-02-28T09:18:49;84740.80;;;-10.80
74539;BMP180;66042;51.090;-115.340;2023-02-28T09:21:19;84734.60;;;-10.96
74539;BMP180;66042;51.090;-115.340;2023-02-28T09:23:50;84738.00;;;-10.90
74539;BMP180;66042;51.090;-115.340;2023-02-28T09:26:24;84735.80;;;-10.80
74539;BMP180;66042;51.090;-115.340;2023-02-28T09:28:52;84735.60;;;-10.80
74539;BMP180;66042;51.090;-115.340;2023-02-28T09:31:26;84738.00;;;-10.80
74539;BMP180;66042;51.090;-115.340;2023-02-28T09:33:56;84735.40;;;-10.80
74539;BMP180;66042;51.090;-115.340;2023-02-28T09:36:26;84733.60;;;-10.92
74539;BMP180;66042;51.090;-115.340;2023-02-28T09:38:54;84735.20;;;-11.00
74539;BMP180;66042;51.090;-115.340;2023-02-28T09:41:25;84730.40;;;-10.90
74539;BMP180;66042;51.090;-115.340;2023-02-28T09:44:01;84729.00;;;-10.80
74539;BMP180;66042;51.090;-115.340;2023-02-28T09:46:39;84726.20;;;-10.80
74539;BMP180;66042;51.090;-115.340;2023-02-28T09:49:32;84725.40;;;-10.72
74539;BMP180;66042;51.090;-115.340;2023-02-28T09:52:03;84726.20;;;-10.70
74539;BMP180;66042;51.090;-115.340;2023-02-28T09:54:32;84724.60;;;-10.70
74539;BMP180;66042;51.090;-115.340;2023-02-28T09:57:15;84718.60;;;-10.70
74539;BMP180;66042;51.090;-115.340;2023-02-28T10:00:21;84714.40;;;-10.70
74539;BMP180;66042;51.090;-115.340;2023-02-28T10:05:50;84706.80;;;-10.70
74539;BMP180;66042;51.090;-115.340;2023-02-28T10:08:29;84708.60;;;-10.70
74539;BMP180;66042;51.090;-115.340;2023-02-28T10:11:09;84708.20;;;-10.70
74539;BMP180;66042;51.090;-115.340;2023-02-28T10:13:52;84702.80;;;-10.80
74539;BMP180;66042;51.090;-115.340;2023-02-28T10:16:46;84701.20;;;-10.80
74539;BMP180;66042;51.090;-115.340;2023-02-28T10:22:34;84699.00;;;-10.80
74539;BMP180;66042;51.090;-115.340;2023-02-28T10:25:16;84699.20;;;-10.80
74539;BMP180;66042;51.090;-115.340;2023-02-28T10:27:44;84695.00;;;-10.82
74539;BMP180;66042;51.090;-115.340;2023-02-28T10:30:16;84689.40;;;-10.80
74539;BMP180;66042;51.090;-115.340;2023-02-28T10:32:51;84691.80;;;-10.80
74539;BMP180;66042;51.090;-115.340;2023-02-28T10:35:24;84691.40;;;-10.80
74539;BMP180;66042;51.090;-115.340;2023-02-28T10:37:58;84690.40;;;-10.80
74539;BMP180;66042;51.090;-115.340;2023-02-28T10:40:32;84685.80;;;-10.80
74539;BMP180;66042;51.090;-115.340;2023-02-28T10:43:11;84688.20;;;-10.78
74539;BMP180;66042;51.090;-115.340;2023-02-28T10:46:01;84685.40;;;-10.70
74539;BMP180;66042;51.090;-115.340;2023-02-28T10:48:45;84684.20;;;-10.62
74539;BMP180;66042;51.090;-115.340;2023-02-28T10:51:18;84684.20;;;-10.68
74539;BMP180;66042;51.090;-115.340;2023-02-28T10:53:54;84684.00;;;-10.62
74539;BMP180;66042;51.090;-115.340;2023-02-28T10:56:24;84677.60;;;-10.60
74539;BMP180;66042;51.090;-115.340;2023-02-28T10:59:27;84679.80;;;-10.60
74539;BMP180;66042;51.090;-115.340;2023-02-28T11:01:56;84683.00;;;-10.60
74539;BMP180;66042;51.090;-115.340;2023-02-28T11:07:18;84676.60;;;-10.60
74539;BMP180;66042;51.090;-115.340;2023-02-28T11:10:19;84671.60;;;-10.76
74539;BMP180;66042;51.090;-115.340;2023-02-28T11:12:47;84674.60;;;-10.70
74539;BMP180;66042;51.090;-115.340;2023-02-28T11:15:33;84674.60;;;-10.70
74539;BMP180;66042;51.090;-115.340;2023-02-28T11:20:40;84681.00;;;-10.60
74539;BMP180;66042;51.090;-115.340;2023-02-28T11:23:13;84673.40;;;-10.60
74539;BMP180;66042;51.090;-115.340;2023-02-28T11:25:55;84675.40;;;-10.50
74539;BMP180;66042;51.090;-115.340;2023-02-28T11:28:35;84674.80;;;-10.50
74539;BMP180;66042;51.090;-115.340;2023-02-28T11:31:06;84674.40;;;-10.58
74539;BMP180;66042;51.090;-115.340;2023-02-28T11:33:46;84673.20;;;-10.50
74539;BMP180;66042;51.090;-115.340;2023-02-28T11:36:23;84674.00;;;-10.52
74539;BMP180;66042;51.090;-115.340;2023-02-28T11:38:58;84670.20;;;-10.50
74539;BMP180;66042;51.090;-115.340;2023-02-28T11:41:46;84671.40;;;-10.50
74539;BMP180;66042;51.090;-115.340;2023-02-28T11:44:43;84675.40;;;-10.60
74539;BMP180;66042;51.090;-115.340;2023-02-28T12:00:48;84676.00;;;-10.60
74539;BMP180;66042;51.090;-115.340;2023-02-28T12:06:00;84669.80;;;-10.70
74539;BMP180;66042;51.090;-115.340;2023-02-28T12:08:59;84673.20;;;-10.70
74539;BMP180;66042;51.090;-115.340;2023-02-28T12:20:56;84667.60;;;-10.74
74539;BMP180;66042;51.090;-115.340;2023-02-28T12:26:37;84669.00;;;-10.86
74539;BMP180;66042;51.090;-115.340;2023-02-28T12:34:51;84676.20;;;-10.90
74539;BMP180;66042;51.090;-115.340;2023-02-28T12:37:29;84676.40;;;-10.90
74539;BMP180;66042;51.090;-115.340;2023-02-28T12:40:09;84682.60;;;-10.90
74539;BMP180;66042;51.090;-115.340;2023-02-28T12:42:43;84680.60;;;-10.90
74539;BMP180;66042;51.090;-115.340;2023-02-28T12:45:48;84678.60;;;-10.80
74539;BMP180;66042;51.090;-115.340;2023-02-28T12:48:40;84680.20;;;-10.90
74539;BMP180;66042;51.090;-115.340;2023-02-28T12:51:09;84679.00;;;-10.98
74539;BMP180;66042;51.090;-115.340;2023-02-28T12:53:41;84683.20;;;-10.92
74539;BMP180;66042;51.090;-115.340;2023-02-28T13:10:49;84682.00;;;-10.90
74539;BMP180;66042;51.090;-115.340;2023-02-28T13:13:29;84681.40;;;-10.90
74539;BMP180;66042;51.090;-115.340;2023-02-28T13:16:08;84682.20;;;-10.90
74539;BMP180;66042;51.090;-115.340;2023-02-28T13:18:45;84682.60;;;-10.90
74539;BMP180;66042;51.090;-115.340;2023-02-28T13:21:24;84682.60;;;-10.90
74539;BMP180;66042;51.090;-115.340;2023-02-28T13:34:34;84689.40;;;-10.90
74539;BMP180;66042;51.090;-115.340;2023-02-28T13:39:57;84683.40;;;-10.90
74539;BMP180;66042;51.090;-115.340;2023-02-28T13:47:48;84687.60;;;-10.90
74539;BMP180;66042;51.090;-115.340;2023-02-28T13:56:23;84687.20;;;-10.80
74539;BMP180;66042;51.090;-115.340;2023-02-28T14:00:08;84687.80;;;-10.80
74539;BMP180;66042;51.090;-115.340;2023-02-28T14:05:21;84688.40;;;-10.80
74539;BMP180;66042;51.090;-115.340;2023-02-28T14:07:58;84694.80;;;-10.80
74539;BMP180;66042;51.090;-115.340;2023-02-28T14:10:30;84697.00;;;-10.80
74539;BMP180;66042;51.090;-115.340;2023-02-28T14:15:41;84699.60;;;-10.80
74539;BMP180;66042;51.090;-115.340;2023-02-28T14:18:35;84702.80;;;-10.80
74539;BMP180;66042;51.090;-115.340;2023-02-28T14:21:14;84696.20;;;-10.80
74539;BMP180;66042;51.090;-115.340;2023-02-28T14:32:53;84701.80;;;-10.80
74539;BMP180;66042;51.090;-115.340;2023-02-28T14:35:56;84706.20;;;-10.80
74539;BMP180;66042;51.090;-115.340;2023-02-28T14:38:52;84702.40;;;-10.80
74539;BMP180;66042;51.090;-115.340;2023-02-28T14:41:31;84703.20;;;-10.78
74539;BMP180;66042;51.090;-115.340;2023-02-28T14:44:22;84706.80;;;-10.78
74539;BMP180;66042;51.090;-115.340;2023-02-28T14:47:14;84706.40;;;-10.78
74539;BMP180;66042;51.090;-115.340;2023-02-28T14:49:47;84705.80;;;-10.72
74539;BMP180;66042;51.090;-115.340;2023-02-28T14:52:27;84709.40;;;-10.70
74539;BMP180;66042;51.090;-115.340;2023-02-28T14:55:04;84707.20;;;-10.70
74539;BMP180;66042;51.090;-115.340;2023-02-28T14:57:40;84713.60;;;-10.80
74539;BMP180;66042;51.090;-115.340;2023-02-28T15:00:29;84711.60;;;-10.80
74539;BMP180;66042;51.090;-115.340;2023-02-28T15:02:59;84712.80;;;-10.80
74539;BMP180;66042;51.090;-115.340;2023-02-28T15:05:34;84716.40;;;-10.80
74539;BMP180;66042;51.090;-115.340;2023-02-28T15:08:12;84713.80;;;-10.80
74539;BMP180;66042;51.090;-115.340;2023-02-28T15:10:51;84715.00;;;-10.80
74539;BMP180;66042;51.090;-115.340;2023-02-28T15:13:20;84717.00;;;-10.72
74539;BMP180;66042;51.090;-115.340;2023-02-28T15:16:01;84716.40;;;-10.70
74539;BMP180;66042;51.090;-115.340;2023-02-28T15:18:52;84721.00;;;-10.70
74539;BMP180;66042;51.090;-115.340;2023-02-28T15:21:23;84718.80;;;-10.60
74539;BMP180;66042;51.090;-115.340;2023-02-28T15:26:46;84727.60;;;-10.70
74539;BMP180;66042;51.090;-115.340;2023-02-28T15:29:20;84725.00;;;-10.70
74539;BMP180;66042;51.090;-115.340;2023-02-28T15:32:04;84724.60;;;-10.80
74539;BMP180;66042;51.090;-115.340;2023-02-28T15:34:41;84726.40;;;-10.80
74539;BMP180;66042;51.090;-115.340;2023-02-28T15:37:41;84729.00;;;-10.70
74539;BMP180;66042;51.090;-115.340;2023-02-28T15:40:26;84735.40;;;-10.66
74539;BMP180;66042;51.090;-115.340;2023-02-28T15:43:17;84740.20;;;-10.62
74539;BMP180;66042;51.090;-115.340;2023-02-28T15:48:31;84741.40;;;-10.70
74539;BMP180;66042;51.090;-115.340;2023-02-28T15:51:20;84740.80;;;-10.70
74539;BMP180;66042;51.090;-115.340;2023-02-28T15:53:51;84737.40;;;-10.60
74539;BMP180;66042;51.090;-115.340;2023-02-28T15:56:26;84741.40;;;-10.60
74539;BMP180;66042;51.090;-115.340;2023-02-28T15:59:25;84745.00;;;-10.70
74539;BMP180;66042;51.090;-115.340;2023-02-28T16:02:22;84741.80;;;-10.60
74539;BMP180;66042;51.090;-115.340;2023-02-28T16:05:30;84748.20;;;-10.50
74539;BMP180;66042;51.090;-115.340;2023-02-28T16:08:14;84749.20;;;-10.44
74539;BMP180;66042;51.090;-115.340;2023-02-28T16:10:41;84751.20;;;-10.40
74539;BMP180;66042;51.090;-115.340;2023-02-28T16:13:11;84753.40;;;-10.34
74539;BMP180;66042;51.090;-115.340;2023-02-28T16:15:43;84754.80;;;-10.30
74539;BMP180;66042;51.090;-115.340;2023-02-28T16:18:13;84758.20;;;-10.40
74539;BMP180;66042;51.090;-115.340;2023-02-28T16:20:41;84764.00;;;-10.40
74539;BMP180;66042;51.090;-115.340;2023-02-28T16:23:08;84758.40;;;-10.40
74539;BMP180;66042;51.090;-115.340;2023-02-28T16:25:42;84767.40;;;-10.50
74539;BMP180;66042;51.090;-115.340;2023-02-28T16:30:52;84759.80;;;-10.40
74539;BMP180;66042;51.090;-115.340;2023-02-28T16:33:20;84761.60;;;-10.40